Accueil
METAR-TAF:

METAR-TAF

Aéroports :

Shawbury, Angleterre

latitude: 52-48N, longitude: 002-40W, altitude: 76 m

Observation

Le bulletin a été fait il y a 55 minutes, à 21:50 UTC
Vent 4 kt de sud-ouest
Température 2°C
Humidité 87%
Pression 1021 hPa
Visibilité 10 km ou plus

METAR: EGOS 082150Z AUTO 23004KT 9999 NCD 02/00 Q1021

Heure: 22:45 (22:45 UTC)

Prévision

Le bulletin a été fait il y a 9 heures et 13 minutes, à 13:32 UTC
Prévision valable du 08 à 15 UTC au 08 à 18 UTC
Vent 8 kt de ouest/sud-ouest
Visibilité 10 km ou plus
Quelques nuages à une hauteur de 2500 ft
Nuages épars à une hauteur de 4500 ft

TAF: EGOS 081332Z 0815/0818 24008KT 9999 FEW025 SCT045

Observations et prévisions météorologiques de plus de 4000 aéroports (messages METAR et TAF).

Les stations disponibles sont représentées par des disques jaunes et rouges sur la carte.

Passer la souris dessus pour voir le nom de la station.

Cliquer dessus pour voir les observations et prévisions météorologiques.

Pour changer de carte: cliquez sur les boutons verts avec une croix noire pour zoomer, sur le bouton vert avec un tiret pour effectuer un zoom arrière, ou sur les flèches vertes pour les cartes adjacentes.


METAR-TAF: